<?xml version="1.0" encoding="UTF-8" standalone="no" ?>
<gpx xmlns="http://www.topografix.com/GPX/1/1" xmlns:xsi="http://www.w3.org/2001/XMLSchema-instance" xsi:schemaLocation="http://www.topografix.com/GPX/1/1 http://www.topografix.com/GPX/1/1/gpx.xsd" version="1.1" creator="VisuGPX - https://www.visugpx.com">
  <metadata>
    <name>MortagneSevre_GardeGrenon_9-21km</name>
    <desc><![CDATA[gnerando idor:8309080_9395868_14480589_14480594]]></desc>
  </metadata>
  <trk>
    <name><![CDATA[Mortagne_BordsSèvre_21.4km-9395868]]></name>
    <extensions>
      <line xmlns="http://www.topografix.com/GPX/gpx_style/0/2">
        <color>00FFFF</color>
        <width>4</width>
      </line>
    </extensions>
    <trkseg>
      <trkpt lat="46.98789" lon="-0.94536">
        <ele>132</ele>
        <time>2023-11-05T14:37:46Z</time>
      </trkpt>
      <trkpt lat="46.98676" lon="-0.94482">
        <ele>133</ele>
        <time>2023-11-05T14:40:25Z</time>
      </trkpt>
      <trkpt lat="46.98623" lon="-0.94499">
        <ele>132</ele>
        <time>2023-11-05T14:41:37Z</time>
      </trkpt>
      <trkpt lat="46.98551" lon="-0.948">
        <ele>121</ele>
        <time>2023-11-05T14:46:27Z</time>
      </trkpt>
      <trkpt lat="46.98541" lon="-0.94863">
        <ele>119</ele>
        <time>2023-11-05T14:47:26Z</time>
      </trkpt>
      <trkpt lat="46.9841" lon="-0.94742">
        <ele>120</ele>
        <time>2023-11-05T14:50:53Z</time>
      </trkpt>
      <trkpt lat="46.98014" lon="-0.94286">
        <ele>105</ele>
        <time>2023-11-05T15:02:05Z</time>
      </trkpt>
      <trkpt lat="46.97967" lon="-0.94295">
        <ele>103</ele>
        <time>2023-11-05T15:03:08Z</time>
      </trkpt>
      <trkpt lat="46.97905" lon="-0.94283">
        <ele>98</ele>
        <time>2023-11-05T15:04:32Z</time>
      </trkpt>
      <trkpt lat="46.97837" lon="-0.94195">
        <ele>93</ele>
        <time>2023-11-05T15:06:33Z</time>
      </trkpt>
      <trkpt lat="46.97751" lon="-0.94114">
        <ele>93</ele>
        <time>2023-11-05T15:08:49Z</time>
      </trkpt>
      <trkpt lat="46.97762" lon="-0.94023">
        <ele>96</ele>
        <time>2023-11-05T15:10:13Z</time>
      </trkpt>
      <trkpt lat="46.97733" lon="-0.93917">
        <ele>101</ele>
        <time>2023-11-05T15:11:57Z</time>
      </trkpt>
      <trkpt lat="46.97704" lon="-0.93854">
        <ele>103</ele>
        <time>2023-11-05T15:13:06Z</time>
      </trkpt>
      <trkpt lat="46.97692" lon="-0.93743">
        <ele>106</ele>
        <time>2023-11-05T15:14:49Z</time>
      </trkpt>
      <trkpt lat="46.97635" lon="-0.9362">
        <ele>108</ele>
        <time>2023-11-05T15:17:04Z</time>
      </trkpt>
      <trkpt lat="46.97641" lon="-0.93213">
        <ele>117</ele>
        <time>2023-11-05T15:23:15Z</time>
      </trkpt>
      <trkpt lat="46.97393" lon="-0.93079">
        <ele>135</ele>
        <time>2023-11-05T15:29:07Z</time>
      </trkpt>
      <trkpt lat="46.97307" lon="-0.92625">
        <ele>139</ele>
        <time>2023-11-05T15:36:17Z</time>
      </trkpt>
      <trkpt lat="46.97327" lon="-0.92208">
        <ele>142</ele>
        <time>2023-11-05T15:42:37Z</time>
      </trkpt>
      <trkpt lat="46.96958" lon="-0.91939">
        <ele>133</ele>
        <time>2023-11-05T15:51:47Z</time>
      </trkpt>
      <trkpt lat="46.96806" lon="-0.91798">
        <ele>114</ele>
        <time>2023-11-05T15:55:47Z</time>
      </trkpt>
      <trkpt lat="46.96749" lon="-0.91753">
        <ele>104</ele>
        <time>2023-11-05T15:57:14Z</time>
      </trkpt>
      <trkpt lat="46.96847" lon="-0.91592">
        <ele>102</ele>
        <time>2023-11-05T16:00:30Z</time>
      </trkpt>
      <trkpt lat="46.96927" lon="-0.91455">
        <ele>108</ele>
        <time>2023-11-05T16:03:14Z</time>
      </trkpt>
      <trkpt lat="46.96948" lon="-0.91283">
        <ele>111</ele>
        <time>2023-11-05T16:05:53Z</time>
      </trkpt>
      <trkpt lat="46.96993" lon="-0.90974">
        <ele>114</ele>
        <time>2023-11-05T16:10:41Z</time>
      </trkpt>
      <trkpt lat="46.96968" lon="-0.90763">
        <ele>116</ele>
        <time>2023-11-05T16:13:56Z</time>
      </trkpt>
      <trkpt lat="46.96849" lon="-0.90571">
        <ele>111</ele>
        <time>2023-11-05T16:17:52Z</time>
      </trkpt>
      <trkpt lat="46.9678" lon="-0.90497">
        <ele>109</ele>
        <time>2023-11-05T16:19:46Z</time>
      </trkpt>
      <trkpt lat="46.96987" lon="-0.90208">
        <ele>113</ele>
        <time>2023-11-05T16:26:08Z</time>
      </trkpt>
      <trkpt lat="46.96966" lon="-0.90128">
        <ele>120</ele>
        <time>2023-11-05T16:27:26Z</time>
      </trkpt>
      <trkpt lat="46.9689" lon="-0.90082">
        <ele>125</ele>
        <time>2023-11-05T16:29:16Z</time>
      </trkpt>
      <trkpt lat="46.96892" lon="-0.90176">
        <ele>126</ele>
        <time>2023-11-05T16:30:41Z</time>
      </trkpt>
      <trkpt lat="46.96817" lon="-0.90262">
        <ele>126</ele>
        <time>2023-11-05T16:32:48Z</time>
      </trkpt>
      <trkpt lat="46.96741" lon="-0.90222">
        <ele>125</ele>
        <time>2023-11-05T16:34:36Z</time>
      </trkpt>
      <trkpt lat="46.96655" lon="-0.90119">
        <ele>129</ele>
        <time>2023-11-05T16:37:04Z</time>
      </trkpt>
      <trkpt lat="46.96579" lon="-0.90173">
        <ele>112</ele>
        <time>2023-11-05T16:38:57Z</time>
      </trkpt>
      <trkpt lat="46.96527" lon="-0.90222">
        <ele>110</ele>
        <time>2023-11-05T16:40:20Z</time>
      </trkpt>
      <trkpt lat="46.96396" lon="-0.90099">
        <ele>112</ele>
        <time>2023-11-05T16:43:47Z</time>
      </trkpt>
      <trkpt lat="46.9612" lon="-0.90045">
        <ele>138</ele>
        <time>2023-11-05T16:49:59Z</time>
      </trkpt>
      <trkpt lat="46.96144" lon="-0.89959">
        <ele>136</ele>
        <time>2023-11-05T16:51:23Z</time>
      </trkpt>
      <trkpt lat="46.95956" lon="-0.89887">
        <ele>140</ele>
        <time>2023-11-05T16:55:43Z</time>
      </trkpt>
      <trkpt lat="46.95847" lon="-0.89813">
        <ele>134</ele>
        <time>2023-11-05T16:58:23Z</time>
      </trkpt>
      <trkpt lat="46.95681" lon="-0.89801">
        <ele>138</ele>
        <time>2023-11-05T17:02:05Z</time>
      </trkpt>
      <trkpt lat="46.95577" lon="-0.89767">
        <ele>145</ele>
        <time>2023-11-05T17:04:27Z</time>
      </trkpt>
      <trkpt lat="46.95459" lon="-0.89741">
        <ele>145</ele>
        <time>2023-11-05T17:07:06Z</time>
      </trkpt>
      <trkpt lat="46.95293" lon="-0.89569">
        <ele>152</ele>
        <time>2023-11-05T17:11:38Z</time>
      </trkpt>
      <trkpt lat="46.9522" lon="-0.89564">
        <ele>150</ele>
        <time>2023-11-05T17:13:15Z</time>
      </trkpt>
      <trkpt lat="46.9489" lon="-0.89818">
        <ele>157</ele>
        <time>2023-11-05T17:21:33Z</time>
      </trkpt>
      <trkpt lat="46.94929" lon="-0.8994">
        <ele>155</ele>
        <time>2023-11-05T17:23:35Z</time>
      </trkpt>
      <trkpt lat="46.95058" lon="-0.90238">
        <ele>159</ele>
        <time>2023-11-05T17:28:57Z</time>
      </trkpt>
      <trkpt lat="46.95117" lon="-0.90369">
        <ele>159</ele>
        <time>2023-11-05T17:31:20Z</time>
      </trkpt>
      <trkpt lat="46.95273" lon="-0.90595">
        <ele>160</ele>
        <time>2023-11-05T17:36:13Z</time>
      </trkpt>
      <trkpt lat="46.95394" lon="-0.90467">
        <ele>161</ele>
        <time>2023-11-05T17:39:32Z</time>
      </trkpt>
      <trkpt lat="46.95464" lon="-0.90435">
        <ele>162</ele>
        <time>2023-11-05T17:41:10Z</time>
      </trkpt>
      <trkpt lat="46.95503" lon="-0.90381">
        <ele>161</ele>
        <time>2023-11-05T17:42:21Z</time>
      </trkpt>
      <trkpt lat="46.95554" lon="-0.90241">
        <ele>158</ele>
        <time>2023-11-05T17:44:46Z</time>
      </trkpt>
      <trkpt lat="46.95634" lon="-0.90092">
        <ele>147</ele>
        <time>2023-11-05T17:47:38Z</time>
      </trkpt>
      <trkpt lat="46.95691" lon="-0.90052">
        <ele>143</ele>
        <time>2023-11-05T17:49:03Z</time>
      </trkpt>
      <trkpt lat="46.95714" lon="-0.90155">
        <ele>149</ele>
        <time>2023-11-05T17:50:41Z</time>
      </trkpt>
      <trkpt lat="46.95751" lon="-0.90289">
        <ele>149</ele>
        <time>2023-11-05T17:52:53Z</time>
      </trkpt>
      <trkpt lat="46.958" lon="-0.90295">
        <ele>151</ele>
        <time>2023-11-05T17:53:59Z</time>
      </trkpt>
      <trkpt lat="46.95974" lon="-0.90246">
        <ele>150</ele>
        <time>2023-11-05T17:57:55Z</time>
      </trkpt>
      <trkpt lat="46.96011" lon="-0.90481">
        <ele>149</ele>
        <time>2023-11-05T18:01:35Z</time>
      </trkpt>
      <trkpt lat="46.96001" lon="-0.90635">
        <ele>149</ele>
        <time>2023-11-05T18:03:56Z</time>
      </trkpt>
      <trkpt lat="46.9612" lon="-0.90724">
        <ele>153</ele>
        <time>2023-11-05T18:06:54Z</time>
      </trkpt>
      <trkpt lat="46.96288" lon="-0.90899">
        <ele>157</ele>
        <time>2023-11-05T18:11:29Z</time>
      </trkpt>
      <trkpt lat="46.96224" lon="-0.90985">
        <ele>156</ele>
        <time>2023-11-05T18:13:25Z</time>
      </trkpt>
      <trkpt lat="46.96312" lon="-0.91253">
        <ele>144</ele>
        <time>2023-11-05T18:17:56Z</time>
      </trkpt>
      <trkpt lat="46.96304" lon="-0.91336">
        <ele>140</ele>
        <time>2023-11-05T18:19:12Z</time>
      </trkpt>
      <trkpt lat="46.96359" lon="-0.91595">
        <ele>126</ele>
        <time>2023-11-05T18:23:19Z</time>
      </trkpt>
      <trkpt lat="46.96499" lon="-0.9165">
        <ele>120</ele>
        <time>2023-11-05T18:26:33Z</time>
      </trkpt>
      <trkpt lat="46.96562" lon="-0.91787">
        <ele>106</ele>
        <time>2023-11-05T18:29:03Z</time>
      </trkpt>
      <trkpt lat="46.96511" lon="-0.91919">
        <ele>104</ele>
        <time>2023-11-05T18:31:21Z</time>
      </trkpt>
      <trkpt lat="46.96425" lon="-0.9197">
        <ele>115</ele>
        <time>2023-11-05T18:33:25Z</time>
      </trkpt>
      <trkpt lat="46.96437" lon="-0.92102">
        <ele>114</ele>
        <time>2023-11-05T18:35:26Z</time>
      </trkpt>
      <trkpt lat="46.96552" lon="-0.92182">
        <ele>101</ele>
        <time>2023-11-05T18:38:16Z</time>
      </trkpt>
      <trkpt lat="46.96474" lon="-0.92285">
        <ele>104</ele>
        <time>2023-11-05T18:40:36Z</time>
      </trkpt>
      <trkpt lat="46.96427" lon="-0.92368">
        <ele>112</ele>
        <time>2023-11-05T18:42:14Z</time>
      </trkpt>
      <trkpt lat="46.96493" lon="-0.92557">
        <ele>106</ele>
        <time>2023-11-05T18:45:28Z</time>
      </trkpt>
      <trkpt lat="46.96499" lon="-0.92637">
        <ele>107</ele>
        <time>2023-11-05T18:46:41Z</time>
      </trkpt>
      <trkpt lat="46.96402" lon="-0.9264">
        <ele>116</ele>
        <time>2023-11-05T18:48:51Z</time>
      </trkpt>
      <trkpt lat="46.96431" lon="-0.92691">
        <ele>113</ele>
        <time>2023-11-05T18:49:51Z</time>
      </trkpt>
      <trkpt lat="46.96519" lon="-0.92697">
        <ele>108</ele>
        <time>2023-11-05T18:51:49Z</time>
      </trkpt>
      <trkpt lat="46.96589" lon="-0.92783">
        <ele>104</ele>
        <time>2023-11-05T18:53:51Z</time>
      </trkpt>
      <trkpt lat="46.96575" lon="-0.92877">
        <ele>104</ele>
        <time>2023-11-05T18:55:18Z</time>
      </trkpt>
      <trkpt lat="46.96634" lon="-0.92929">
        <ele>100</ele>
        <time>2023-11-05T18:56:50Z</time>
      </trkpt>
      <trkpt lat="46.96724" lon="-0.92983">
        <ele>107</ele>
        <time>2023-11-05T18:59:00Z</time>
      </trkpt>
      <trkpt lat="46.96625" lon="-0.93103">
        <ele>107</ele>
        <time>2023-11-05T19:01:51Z</time>
      </trkpt>
      <trkpt lat="46.96594" lon="-0.93309">
        <ele>106</ele>
        <time>2023-11-05T19:05:03Z</time>
      </trkpt>
      <trkpt lat="46.96559" lon="-0.93692">
        <ele>104</ele>
        <time>2023-11-05T19:10:55Z</time>
      </trkpt>
      <trkpt lat="46.96588" lon="-0.9405">
        <ele>93</ele>
        <time>2023-11-05T19:16:24Z</time>
      </trkpt>
      <trkpt lat="46.96666" lon="-0.94133">
        <ele>101</ele>
        <time>2023-11-05T19:18:32Z</time>
      </trkpt>
      <trkpt lat="46.96725" lon="-0.94256">
        <ele>106</ele>
        <time>2023-11-05T19:20:49Z</time>
      </trkpt>
      <trkpt lat="46.96805" lon="-0.9431">
        <ele>108</ele>
        <time>2023-11-05T19:22:47Z</time>
      </trkpt>
      <trkpt lat="46.96908" lon="-0.9425">
        <ele>114</ele>
        <time>2023-11-05T19:25:15Z</time>
      </trkpt>
      <trkpt lat="46.96972" lon="-0.94203">
        <ele>112</ele>
        <time>2023-11-05T19:26:50Z</time>
      </trkpt>
      <trkpt lat="46.97081" lon="-0.94243">
        <ele>104</ele>
        <time>2023-11-05T19:29:20Z</time>
      </trkpt>
      <trkpt lat="46.9714" lon="-0.94126">
        <ele>113</ele>
        <time>2023-11-05T19:31:33Z</time>
      </trkpt>
      <trkpt lat="46.97144" lon="-0.94309">
        <ele>95</ele>
        <time>2023-11-05T19:34:19Z</time>
      </trkpt>
      <trkpt lat="46.97196" lon="-0.94401">
        <ele>93</ele>
        <time>2023-11-05T19:36:08Z</time>
      </trkpt>
      <trkpt lat="46.97282" lon="-0.94546">
        <ele>94</ele>
        <time>2023-11-05T19:39:03Z</time>
      </trkpt>
      <trkpt lat="46.97341" lon="-0.94664">
        <ele>82</ele>
        <time>2023-11-05T19:41:16Z</time>
      </trkpt>
      <trkpt lat="46.97441" lon="-0.94821">
        <ele>84</ele>
        <time>2023-11-05T19:44:32Z</time>
      </trkpt>
      <trkpt lat="46.97553" lon="-0.94924">
        <ele>82</ele>
        <time>2023-11-05T19:47:28Z</time>
      </trkpt>
      <trkpt lat="46.97666" lon="-0.94841">
        <ele>79</ele>
        <time>2023-11-05T19:50:17Z</time>
      </trkpt>
      <trkpt lat="46.97726" lon="-0.94715">
        <ele>82</ele>
        <time>2023-11-05T19:52:37Z</time>
      </trkpt>
      <trkpt lat="46.97764" lon="-0.94727">
        <ele>80</ele>
        <time>2023-11-05T19:53:29Z</time>
      </trkpt>
      <trkpt lat="46.97865" lon="-0.94747">
        <ele>80</ele>
        <time>2023-11-05T19:55:45Z</time>
      </trkpt>
      <trkpt lat="46.97965" lon="-0.9481">
        <ele>83</ele>
        <time>2023-11-05T19:58:10Z</time>
      </trkpt>
      <trkpt lat="46.98006" lon="-0.94904">
        <ele>81</ele>
        <time>2023-11-05T19:59:51Z</time>
      </trkpt>
      <trkpt lat="46.98109" lon="-0.95019">
        <ele>82</ele>
        <time>2023-11-05T20:02:44Z</time>
      </trkpt>
      <trkpt lat="46.98213" lon="-0.95179">
        <ele>85</ele>
        <time>2023-11-05T20:06:05Z</time>
      </trkpt>
      <trkpt lat="46.98286" lon="-0.95293">
        <ele>79</ele>
        <time>2023-11-05T20:08:28Z</time>
      </trkpt>
      <trkpt lat="46.98385" lon="-0.95359">
        <ele>85</ele>
        <time>2023-11-05T20:10:53Z</time>
      </trkpt>
      <trkpt lat="46.98454" lon="-0.95451">
        <ele>82</ele>
        <time>2023-11-05T20:12:57Z</time>
      </trkpt>
      <trkpt lat="46.98483" lon="-0.95488">
        <ele>84</ele>
        <time>2023-11-05T20:13:49Z</time>
      </trkpt>
      <trkpt lat="46.98482" lon="-0.95551">
        <ele>80</ele>
        <time>2023-11-05T20:14:46Z</time>
      </trkpt>
      <trkpt lat="46.98543" lon="-0.95742">
        <ele>80</ele>
        <time>2023-11-05T20:17:58Z</time>
      </trkpt>
      <trkpt lat="46.98606" lon="-0.95858">
        <ele>77</ele>
        <time>2023-11-05T20:20:13Z</time>
      </trkpt>
      <trkpt lat="46.98678" lon="-0.95892">
        <ele>74</ele>
        <time>2023-11-05T20:21:54Z</time>
      </trkpt>
      <trkpt lat="46.98679" lon="-0.96049">
        <ele>80</ele>
        <time>2023-11-05T20:24:17Z</time>
      </trkpt>
      <trkpt lat="46.98904" lon="-0.9588">
        <ele>75</ele>
        <time>2023-11-05T20:29:54Z</time>
      </trkpt>
      <trkpt lat="46.99024" lon="-0.95842">
        <ele>76</ele>
        <time>2023-11-05T20:32:38Z</time>
      </trkpt>
      <trkpt lat="46.99155" lon="-0.95928">
        <ele>77</ele>
        <time>2023-11-05T20:35:50Z</time>
      </trkpt>
      <trkpt lat="46.99283" lon="-0.96247">
        <ele>91</ele>
        <time>2023-11-05T20:41:27Z</time>
      </trkpt>
      <trkpt lat="46.99353" lon="-0.96316">
        <ele>83</ele>
        <time>2023-11-05T20:43:19Z</time>
      </trkpt>
      <trkpt lat="46.99411" lon="-0.96491">
        <ele>82</ele>
        <time>2023-11-05T20:46:16Z</time>
      </trkpt>
      <trkpt lat="46.99523" lon="-0.96605">
        <ele>76</ele>
        <time>2023-11-05T20:49:18Z</time>
      </trkpt>
      <trkpt lat="46.99537" lon="-0.96671">
        <ele>75</ele>
        <time>2023-11-05T20:50:21Z</time>
      </trkpt>
      <trkpt lat="46.99569" lon="-0.96657">
        <ele>69</ele>
        <time>2023-11-05T20:51:06Z</time>
      </trkpt>
      <trkpt lat="46.99623" lon="-0.96762">
        <ele>75</ele>
        <time>2023-11-05T20:53:05Z</time>
      </trkpt>
      <trkpt lat="46.99672" lon="-0.96666">
        <ele>77</ele>
        <time>2023-11-05T20:54:54Z</time>
      </trkpt>
      <trkpt lat="46.99505" lon="-0.96336">
        <ele>75</ele>
        <time>2023-11-05T21:01:08Z</time>
      </trkpt>
      <trkpt lat="46.99432" lon="-0.96043">
        <ele>80</ele>
        <time>2023-11-05T21:05:52Z</time>
      </trkpt>
      <trkpt lat="46.99337" lon="-0.9598">
        <ele>72</ele>
        <time>2023-11-05T21:08:11Z</time>
      </trkpt>
      <trkpt lat="46.99302" lon="-0.95898">
        <ele>78</ele>
        <time>2023-11-05T21:09:40Z</time>
      </trkpt>
      <trkpt lat="46.99229" lon="-0.95754">
        <ele>83</ele>
        <time>2023-11-05T21:12:23Z</time>
      </trkpt>
      <trkpt lat="46.99195" lon="-0.95697">
        <ele>84</ele>
        <time>2023-11-05T21:13:32Z</time>
      </trkpt>
      <trkpt lat="46.9916" lon="-0.95685">
        <ele>78</ele>
        <time>2023-11-05T21:14:20Z</time>
      </trkpt>
      <trkpt lat="46.99116" lon="-0.95638">
        <ele>81</ele>
        <time>2023-11-05T21:15:32Z</time>
      </trkpt>
      <trkpt lat="46.99045" lon="-0.95611">
        <ele>79</ele>
        <time>2023-11-05T21:17:10Z</time>
      </trkpt>
      <trkpt lat="46.98882" lon="-0.95725">
        <ele>72</ele>
        <time>2023-11-05T21:21:11Z</time>
      </trkpt>
      <trkpt lat="46.98855" lon="-0.95696">
        <ele>77</ele>
        <time>2023-11-05T21:21:56Z</time>
      </trkpt>
      <trkpt lat="46.98917" lon="-0.95579">
        <ele>83</ele>
        <time>2023-11-05T21:24:11Z</time>
      </trkpt>
      <trkpt lat="46.98909" lon="-0.95533">
        <ele>90</ele>
        <time>2023-11-05T21:24:54Z</time>
      </trkpt>
      <trkpt lat="46.98846" lon="-0.95482">
        <ele>102</ele>
        <time>2023-11-05T21:26:30Z</time>
      </trkpt>
      <trkpt lat="46.98829" lon="-0.95387">
        <ele>108</ele>
        <time>2023-11-05T21:27:59Z</time>
      </trkpt>
      <trkpt lat="46.98737" lon="-0.9535">
        <ele>115</ele>
        <time>2023-11-05T21:30:07Z</time>
      </trkpt>
      <trkpt lat="46.98787" lon="-0.95282">
        <ele>117</ele>
        <time>2023-11-05T21:31:38Z</time>
      </trkpt>
      <trkpt lat="46.98854" lon="-0.95093">
        <ele>127</ele>
        <time>2023-11-05T21:34:52Z</time>
      </trkpt>
      <trkpt lat="46.9891" lon="-0.95059">
        <ele>128</ele>
        <time>2023-11-05T21:36:13Z</time>
      </trkpt>
      <trkpt lat="46.98936" lon="-0.94944">
        <ele>131</ele>
        <time>2023-11-05T21:38:03Z</time>
      </trkpt>
      <trkpt lat="46.98926" lon="-0.94838">
        <ele>130</ele>
        <time>2023-11-05T21:39:40Z</time>
      </trkpt>
      <trkpt lat="46.98908" lon="-0.94767">
        <ele>130</ele>
        <time>2023-11-05T21:40:49Z</time>
      </trkpt>
      <trkpt lat="46.98945" lon="-0.94741">
        <ele>129</ele>
        <time>2023-11-05T21:41:44Z</time>
      </trkpt>
      <trkpt lat="46.98869" lon="-0.94558">
        <ele>130</ele>
        <time>2023-11-05T21:44:59Z</time>
      </trkpt>
      <trkpt lat="46.98819" lon="-0.94466">
        <ele>130</ele>
        <time>2023-11-05T21:46:46Z</time>
      </trkpt>
    </trkseg>
  </trk>
</gpx>